Time;durP1;ratioP1;P1;durP2;ratioP2;P2;SDS_P1;SDS_P2;PMS_P1;PMS_P2;Temp;Humidity;BMP_temperature;BMP_pressure;BME280_temperature;BME280_humidity;BME280_pressure;Samples;Min_cycle;Max_cycle;Signal;HPM_P1;HPM_P2
2023/05/18 00:00:15;;;;;;;9.50;5.25;;;;;;;18.99;45.94;103004.50;5018489;28;20046;-33
2023/05/18 00:02:42;;;;;;;9.63;5.03;;;;;;;18.98;45.53;103004.63;5019850;28;20174;-33
2023/05/18 00:05:11;;;;;;;7.55;4.72;;;;;;;18.97;45.76;103002.88;5020347;28;20065;-34
2023/05/18 00:07:39;;;;;;;8.30;5.00;;;;;;;18.97;45.56;103009.13;5022435;28;20139;-33
2023/05/18 00:10:07;;;;;;;8.52;4.97;;;;;;;18.96;45.76;103006.53;5020259;28;20124;-34
2023/05/18 00:12:34;;;;;;;9.80;5.25;;;;;;;18.95;45.83;103008.38;5017412;28;20057;-34
2023/05/18 00:15:00;;;;;;;7.75;5.18;;;;;;;18.93;46.23;103010.28;5022627;28;20132;-33
2023/05/18 00:17:27;;;;;;;6.80;4.75;;;;;;;18.91;46.19;103014.94;5021320;28;21499;-33
2023/05/18 00:19:57;;;;;;;9.00;5.97;;;;;;;18.92;46.13;103005.03;5015070;28;20073;-33
2023/05/18 00:22:25;;;;;;;9.38;5.75;;;;;;;18.91;45.83;103014.06;5023689;28;20112;-33
2023/05/18 00:24:52;;;;;;;8.30;4.68;;;;;;;18.90;45.77;103015.03;5023433;28;20045;-33
2023/05/18 00:27:18;;;;;;;7.72;4.85;;;;;;;18.90;45.76;103012.34;5020909;28;20472;-33
2023/05/18 00:29:45;;;;;;;8.68;5.18;;;;;;;18.88;45.72;103014.28;5025913;28;20115;-33
2023/05/18 00:32:11;;;;;;;9.07;5.22;;;;;;;18.86;45.64;103009.03;5025360;28;20132;-33
2023/05/18 00:34:38;;;;;;;7.88;4.88;;;;;;;18.86;46.07;103016.22;5023244;28;20441;-33
2023/05/18 00:37:05;;;;;;;7.25;4.57;;;;;;;18.85;45.63;103014.47;5022501;28;20372;-34
2023/05/18 00:39:31;;;;;;;8.80;4.47;;;;;;;18.85;46.06;103023.41;5025059;28;20136;-33
2023/05/18 00:41:58;;;;;;;7.90;4.45;;;;;;;18.84;46.18;103018.13;5021721;28;20074;-35
2023/05/18 00:44:24;;;;;;;8.50;4.90;;;;;;;18.83;45.85;103019.13;5025068;28;20050;-33
2023/05/18 00:46:51;;;;;;;8.45;4.93;;;;;;;18.82;45.98;103023.63;5026658;28;20655;-32
2023/05/18 00:49:18;;;;;;;8.77;5.20;;;;;;;18.81;46.24;103019.19;5024714;28;20060;-33
2023/05/18 00:51:45;;;;;;;7.70;4.63;;;;;;;18.81;46.08;103021.03;5022831;28;20049;-33
2023/05/18 00:54:13;;;;;;;7.90;4.35;;;;;;;18.80;46.48;103022.88;5021523;28;20065;-33
2023/05/18 00:56:40;;;;;;;8.88;4.50;;;;;;;18.80;46.25;103019.31;5024626;28;20123;-32
2023/05/18 00:59:10;;;;;;;9.05;5.25;;;;;;;18.80;46.14;103022.00;5025710;28;20073;-33
2023/05/18 01:01:42;;;;;;;8.07;4.82;;;;;;;18.79;46.00;103021.16;5022975;28;20333;-33
2023/05/18 01:04:12;;;;;;;7.80;5.10;;;;;;;18.78;46.20;103018.59;5022734;28;20045;-33
2023/05/18 01:06:41;;;;;;;7.50;4.70;;;;;;;18.78;46.24;103021.25;5020224;28;20049;-32
2023/05/18 01:09:12;;;;;;;7.07;4.30;;;;;;;18.78;46.26;103021.25;5022932;28;20127;-33
2023/05/18 01:11:57;;;;;;;6.97;4.35;;;;;;;18.76;46.60;103028.56;5025902;28;20079;-33
2023/05/18 01:14:35;;;;;;;7.50;4.40;;;;;;;18.76;46.34;103032.09;5023608;28;20095;-32
2023/05/18 01:17:11;;;;;;;6.70;4.35;;;;;;;18.76;46.67;103025.88;5020420;28;20346;-33
2023/05/18 01:19:50;;;;;;;6.72;4.05;;;;;;;18.74;46.40;103024.16;5022505;28;20080;-33
2023/05/18 01:22:56;;;;;;;6.43;4.15;;;;;;;18.73;46.76;103021.56;5021546;28;20081;-33
2023/05/18 01:25:40;;;;;;;7.32;4.15;;;;;;;18.73;46.16;103026.94;5023523;28;20050;-33
2023/05/18 01:28:16;;;;;;;7.57;4.57;;;;;;;18.72;46.35;103014.47;5021417;28;20108;-33
2023/05/18 01:30:43;;;;;;;6.82;4.13;;;;;;;18.72;46.49;103025.22;5022613;28;20436;-32
2023/05/18 01:33:12;;;;;;;7.18;4.75;;;;;;;18.70;46.80;103028.03;5020369;28;20426;-33
2023/05/18 01:35:46;;;;;;;7.63;4.10;;;;;;;18.70;46.80;103019.97;5019795;28;20057;-33
2023/05/18 01:38:19;;;;;;;6.10;4.00;;;;;;;18.70;46.71;103016.41;5022784;28;20058;-33
2023/05/18 01:41:28;;;;;;;7.35;4.20;;;;;;;18.67;47.22;103025.50;5018397;28;20406;-32
2023/05/18 01:44:03;;;;;;;7.85;4.18;;;;;;;18.68;46.78;103020.97;5019614;28;20103;-33
2023/05/18 01:46:48;;;;;;;5.85;3.75;;;;;;;18.68;46.43;103027.22;5021293;28;20127;-33
2023/05/18 01:49:18;;;;;;;6.97;4.18;;;;;;;18.67;46.58;103024.66;5019549;28;20047;-33
2023/05/18 01:51:48;;;;;;;7.63;4.30;;;;;;;18.66;46.56;103022.94;5024588;28;20045;-33
2023/05/18 01:54:16;;;;;;;6.90;4.22;;;;;;;18.66;46.69;103021.09;5021837;28;20099;-33
2023/05/18 01:56:44;;;;;;;6.97;4.13;;;;;;;18.65;46.62;103024.75;5023433;28;20061;-32
2023/05/18 01:59:11;;;;;;;9.40;4.47;;;;;;;18.65;46.52;103026.56;5020391;28;20070;-34
2023/05/18 02:01:38;;;;;;;7.95;4.40;;;;;;;18.65;46.53;103030.13;5020140;28;20464;-33
2023/05/18 02:04:08;;;;;;;7.45;3.78;;;;;;;18.64;46.67;103020.31;5020885;28;20141;-34
2023/05/18 02:06:36;;;;;;;6.60;3.60;;;;;;;18.64;46.70;103027.53;5022868;28;20069;-34
2023/05/18 02:09:05;;;;;;;6.30;4.00;;;;;;;18.63;46.91;103026.69;5022194;28;20132;-34
2023/05/18 02:11:32;;;;;;;7.13;3.85;;;;;;;18.62;46.85;103021.41;5019027;28;20204;-33
2023/05/18 02:14:00;;;;;;;6.28;3.80;;;;;;;18.62;46.80;103018.72;5023861;28;20049;-33
2023/05/18 02:16:26;;;;;;;4.97;3.58;;;;;;;18.61;46.50;103017.84;5020206;28;20072;-34
2023/05/18 02:18:53;;;;;;;6.60;3.67;;;;;;;18.59;47.20;103017.09;5025166;28;20610;-34
2023/05/18 02:21:20;;;;;;;6.35;3.50;;;;;;;18.61;46.54;103019.66;5026643;28;20073;-34
2023/05/18 02:23:47;;;;;;;6.10;3.55;;;;;;;18.59;46.65;103019.78;5026578;28;20079;-33
2023/05/18 02:26:14;;;;;;;7.10;4.03;;;;;;;18.58;46.94;103018.06;5025779;28;20130;-34
2023/05/18 02:28:41;;;;;;;6.75;3.55;;;;;;;18.57;47.19;103024.38;5020026;28;20108;-34
2023/05/18 02:31:10;;;;;;;6.80;3.60;;;;;;;18.56;46.88;103020.00;5027425;28;20046;-34
2023/05/18 02:33:41;;;;;;;6.38;3.58;;;;;;;18.57;47.19;103021.69;5026656;28;20388;-34
2023/05/18 02:36:12;;;;;;;5.30;3.67;;;;;;;18.56;46.81;103022.69;5025118;28;20050;-34
2023/05/18 02:38:43;;;;;;;7.32;3.40;;;;;;;18.56;46.95;103024.50;5024441;28;20385;-34
2023/05/18 02:41:10;;;;;;;4.90;3.30;;;;;;;18.56;46.95;103022.69;5029694;28;20054;-34
2023/05/18 02:43:37;;;;;;;6.30;3.80;;;;;;;18.54;47.15;103026.44;5028453;28;20144;-34
2023/05/18 02:46:04;;;;;;;6.47;3.22;;;;;;;18.54;47.18;103023.75;5026996;28;20077;-36
2023/05/18 02:48:31;;;;;;;5.55;3.55;;;;;;;18.53;47.39;103020.19;5026764;28;20373;-31
2023/05/18 02:50:57;;;;;;;5.75;3.47;;;;;;;18.53;46.91;103016.66;5024128;28;20061;-33
2023/05/18 02:53:25;;;;;;;6.43;3.63;;;;;;;18.52;46.79;103017.63;5023527;28;20058;-33
2023/05/18 02:55:57;;;;;;;4.90;3.10;;;;;;;18.50;46.81;103020.41;5026740;28;20111;-33
2023/05/18 02:58:24;;;;;;;4.80;2.78;;;;;;;18.52;47.04;103026.53;5023969;28;20144;-33
2023/05/18 03:00:54;;;;;;;5.30;3.45;;;;;;;18.50;47.09;103021.28;5029356;28;20050;-33
2023/05/18 03:03:22;;;;;;;4.28;3.05;;;;;;;18.51;47.46;103014.06;5024943;28;20072;-34
2023/05/18 03:05:51;;;;;;;6.25;2.85;;;;;;;18.50;47.45;103015.06;5025478;28;20049;-33
2023/05/18 03:08:25;;;;;;;5.85;3.08;;;;;;;18.50;47.30;103020.41;5026424;28;20050;-33
2023/05/18 03:10:52;;;;;;;5.43;2.95;;;;;;;18.49;47.19;103024.03;5025401;28;20056;-33
2023/05/18 03:13:19;;;;;;;5.15;2.95;;;;;;;18.47;47.22;103017.94;5024149;28;20502;-35
2023/05/18 03:15:46;;;;;;;4.80;3.08;;;;;;;18.47;47.08;103015.25;5026592;28;20054;-33
2023/05/18 03:18:12;;;;;;;4.63;2.95;;;;;;;18.46;47.19;103022.44;5029855;28;20108;-33
2023/05/18 03:20:39;;;;;;;4.75;2.95;;;;;;;18.46;47.60;103018.91;5026418;28;20073;-33
2023/05/18 03:23:06;;;;;;;5.03;2.97;;;;;;;18.45;47.52;103018.06;5023311;28;20499;-33
2023/05/18 03:25:36;;;;;;;5.85;2.80;;;;;;;18.45;47.03;103022.53;5023982;28;20073;-33
2023/05/18 03:28:04;;;;;;;5.13;2.95;;;;;;;18.43;47.48;103017.28;5025450;28;20699;-33
2023/05/18 03:30:34;;;;;;;4.90;2.85;;;;;;;18.43;47.28;103019.97;5025436;28;20041;-33
2023/05/18 03:33:01;;;;;;;4.72;3.00;;;;;;;18.44;47.18;103021.69;5021673;28;20088;-33
2023/05/18 03:35:28;;;;;;;4.70;2.35;;;;;;;18.43;47.26;103016.44;5023214;28;20049;-33
2023/05/18 03:37:55;;;;;;;5.70;2.92;;;;;;;18.42;47.20;103018.25;5022131;28;20085;-33
2023/05/18 03:40:23;;;;;;;4.15;2.90;;;;;;;18.42;47.56;103015.56;5023608;28;20073;-34
2023/05/18 03:42:50;;;;;;;4.60;2.47;;;;;;;18.41;47.22;103019.22;5025240;28;20053;-36
2023/05/18 03:45:16;;;;;;;6.78;2.92;;;;;;;18.40;47.06;103022.00;5022655;28;20492;-33
2023/05/18 03:47:43;;;;;;;5.97;2.85;;;;;;;18.39;47.09;103018.44;5025611;28;20103;-33
2023/05/18 03:50:10;;;;;;;4.15;2.55;;;;;;;18.39;47.42;103014.91;5021761;28;20132;-33
2023/05/18 03:52:37;;;;;;;5.20;2.75;;;;;;;18.37;47.48;103020.41;5015333;28;20088;-34
2023/05/18 03:55:05;;;;;;;3.53;2.20;;;;;;;18.37;47.21;103016.81;5020613;28;20149;-33
2023/05/18 03:57:32;;;;;;;5.85;2.85;;;;;;;18.37;47.61;103019.50;5025539;28;20050;-34
2023/05/18 03:59:58;;;;;;;3.95;2.58;;;;;;;18.36;47.39;103025.84;5025525;28;20060;-33
2023/05/18 04:02:25;;;;;;;4.25;2.22;;;;;;;18.35;47.74;103026.81;5025352;28;20061;-33
2023/05/18 04:04:52;;;;;;;4.97;2.50;;;;;;;18.34;47.60;103030.47;5025341;28;20132;-34
2023/05/18 04:07:21;;;;;;;5.00;2.40;;;;;;;18.33;47.63;103023.34;5021196;28;20041;-32
2023/05/18 04:09:48;;;;;;;4.95;2.58;;;;;;;18.32;47.57;103021.66;5022100;28;20067;-34
2023/05/18 04:12:14;;;;;;;4.55;2.40;;;;;;;18.31;47.82;103031.53;5026124;28;20772;-33
2023/05/18 04:14:41;;;;;;;4.10;2.20;;;;;;;18.31;47.31;103036.03;5021556;28;20053;-34
2023/05/18 04:17:08;;;;;;;4.72;2.28;;;;;;;18.31;47.38;103036.91;5021938;28;20111;-34
2023/05/18 04:19:36;;;;;;;4.75;2.63;;;;;;;18.31;47.41;103036.03;5023781;28;20081;-33
2023/05/18 04:22:05;;;;;;;3.45;2.13;;;;;;;18.30;47.33;103040.56;5022453;28;20132;-33
2023/05/18 04:24:33;;;;;;;3.88;2.22;;;;;;;18.30;47.84;103040.56;5022752;28;20074;-33
2023/05/18 04:27:03;;;;;;;5.28;2.60;;;;;;;18.30;47.72;103051.28;5022196;28;20075;-33
2023/05/18 04:29:29;;;;;;;3.58;2.00;;;;;;;18.30;47.84;103045.06;5023692;28;20446;-33
2023/05/18 04:31:59;;;;;;;4.45;2.20;;;;;;;18.29;47.78;103043.31;5022748;28;20147;-33
2023/05/18 04:34:27;;;;;;;3.25;1.92;;;;;;;18.29;47.33;103046.88;5023800;28;20057;-33
2023/05/18 04:36:55;;;;;;;4.18;2.20;;;;;;;18.29;47.23;103048.69;5023879;28;20061;-33
2023/05/18 04:39:22;;;;;;;3.88;2.60;;;;;;;18.30;47.48;103047.75;5021079;28;20108;-33
2023/05/18 04:41:49;;;;;;;4.18;2.67;;;;;;;18.29;47.31;103043.31;5024594;28;20153;-34
2023/05/18 04:44:17;;;;;;;3.40;2.22;;;;;;;18.29;47.69;103046.88;5021402;28;20045;-35
2023/05/18 04:46:46;;;;;;;4.10;2.40;;;;;;;18.29;47.74;103046.00;5025766;28;20461;-34
2023/05/18 04:49:13;;;;;;;4.03;2.03;;;;;;;18.29;47.94;103060.31;5028280;28;20500;-33
2023/05/18 04:51:40;;;;;;;4.13;2.13;;;;;;;18.31;47.53;103057.50;5025111;28;20050;-34
2023/05/18 04:54:11;;;;;;;4.30;2.20;;;;;;;18.30;47.82;103059.34;5025107;28;20087;-33
2023/05/18 04:56:38;;;;;;;3.78;1.98;;;;;;;18.31;47.79;103052.16;5026616;28;20326;-35
2023/05/18 04:59:05;;;;;;;3.55;2.20;;;;;;;18.32;47.35;103060.09;5025254;28;20057;-33
2023/05/18 05:01:31;;;;;;;3.15;1.88;;;;;;;18.32;47.38;103068.13;5024110;28;20084;-33
2023/05/18 05:03:58;;;;;;;3.63;1.90;;;;;;;18.33;47.80;103066.31;5026764;28;20385;-33
2023/05/18 05:06:25;;;;;;;2.85;2.10;;;;;;;18.32;47.69;103065.44;5024494;28;20057;-33
2023/05/18 05:08:52;;;;;;;3.42;1.85;;;;;;;18.32;47.71;103062.78;5022749;28;20107;-33
2023/05/18 05:11:20;;;;;;;4.18;1.95;;;;;;;18.34;47.44;103065.38;5026662;28;20314;-33
2023/05/18 05:13:47;;;;;;;3.20;1.77;;;;;;;18.35;47.67;103059.03;5019589;28;20076;-34
2023/05/18 05:16:13;;;;;;;2.80;1.98;;;;;;;18.35;47.70;103065.25;5024267;28;20087;-33
2023/05/18 05:18:40;;;;;;;4.10;1.60;;;;;;;18.37;47.58;103068.72;5023542;28;20057;-37
2023/05/18 05:21:08;;;;;;;3.38;1.88;;;;;;;18.38;47.57;103062.38;5020168;28;20595;-34
2023/05/18 05:23:34;;;;;;;3.28;1.80;;;;;;;18.40;47.71;103067.63;5021392;28;20054;-33
2023/05/18 05:26:01;;;;;;;3.60;2.00;;;;;;;18.40;47.58;103063.13;5026547;28;20088;-33
2023/05/18 05:28:28;;;;;;;3.75;1.60;;;;;;;18.41;47.38;103061.28;5022964;28;20490;-33
2023/05/18 05:30:54;;;;;;;2.63;1.90;;;;;;;18.42;47.34;103057.66;5018314;28;20050;-33
2023/05/18 05:33:21;;;;;;;2.10;1.60;;;;;;;18.42;47.68;103061.22;5014851;28;20049;-34
2023/05/18 05:35:48;;;;;;;2.85;1.50;;;;;;;18.42;47.56;103061.22;5016253;28;20143;-33
2023/05/18 05:38:14;;;;;;;2.33;1.55;;;;;;;18.42;47.60;103065.72;5021850;28;20095;-33
2023/05/18 05:40:41;;;;;;;4.47;1.88;;;;;;;18.43;47.24;103070.13;5022112;28;20041;-32
2023/05/18 05:43:07;;;;;;;3.58;1.90;;;;;;;18.44;47.33;103067.31;5021975;28;20195;-33
2023/05/18 05:45:34;;;;;;;3.08;1.40;;;;;;;18.46;47.54;103064.56;5011799;28;20103;-33
2023/05/18 05:48:01;;;;;;;3.03;1.73;;;;;;;18.47;47.35;103061.75;5017568;28;20053;-33
2023/05/18 05:50:27;;;;;;;2.45;1.60;;;;;;;18.49;47.56;103072.38;5018744;28;20049;-32
2023/05/18 05:52:54;;;;;;;3.78;1.85;;;;;;;18.50;47.75;103064.25;5018428;28;20512;-32
2023/05/18 05:55:21;;;;;;;2.85;1.70;;;;;;;18.51;47.28;103062.41;5018161;28;20382;-32
2023/05/18 05:57:48;;;;;;;2.88;1.55;;;;;;;18.51;47.24;103070.47;5020013;28;20076;-33
2023/05/18 06:00:15;;;;;;;3.90;1.85;;;;;;;18.52;47.27;103072.19;5011145;28;20443;-33
2023/05/18 06:02:41;;;;;;;2.05;1.50;;;;;;;18.54;47.08;103072.97;5018788;28;20080;-32
2023/05/18 06:05:08;;;;;;;3.72;1.80;;;;;;;18.55;47.56;103072.00;5018222;28;20056;-33
2023/05/18 06:07:35;;;;;;;3.15;1.80;;;;;;;18.55;47.36;103072.00;5024784;28;20473;-33
2023/05/18 06:10:04;;;;;;;2.63;1.60;;;;;;;18.58;47.09;103077.16;5022526;28;20054;-32
2023/05/18 06:12:31;;;;;;;3.22;1.70;;;;;;;18.59;47.12;103073.50;5018251;28;20430;-33
2023/05/18 06:14:58;;;;;;;4.25;1.60;;;;;;;18.59;47.38;103081.56;5019592;28;20050;-32
2023/05/18 06:17:26;;;;;;;3.92;1.90;;;;;;;18.61;46.99;103082.31;5018228;28;22065;-32
2023/05/18 06:19:53;;;;;;;3.33;2.08;;;;;;;18.64;47.09;103089.31;5023681;28;20056;-33
2023/05/18 06:22:19;;;;;;;3.38;2.05;;;;;;;18.65;47.03;103077.59;5020261;28;20061;-32
2023/05/18 06:24:46;;;;;;;3.40;2.08;;;;;;;18.65;47.03;103078.47;5020412;28;20053;-35
2023/05/18 06:27:12;;;;;;;4.18;2.30;;;;;;;18.67;47.17;103095.34;5019803;28;20342;-34
2023/05/18 06:29:39;;;;;;;4.43;2.58;;;;;;;18.69;46.83;103089.84;5020079;28;20165;-32
2023/05/18 06:32:06;;;;;;;5.85;3.13;;;;;;;18.69;46.64;103093.44;5017153;28;20049;-35
2023/05/18 06:34:33;;;;;;;6.63;3.08;;;;;;;18.71;46.89;103090.66;5022217;28;20054;-33
2023/05/18 06:36:59;;;;;;;5.65;2.65;;;;;;;18.73;46.59;103091.41;5021734;28;20057;-35
2023/05/18 06:39:26;;;;;;;7.45;3.58;;;;;;;18.74;46.58;103093.16;5018721;28;20054;-32
2023/05/18 06:41:53;;;;;;;7.80;3.30;;;;;;;18.77;46.58;103100.13;5021837;28;20148;-33
2023/05/18 06:44:19;;;;;;;7.22;3.97;;;;;;;18.77;46.67;103100.97;5020396;28;20508;-33
2023/05/18 06:46:46;;;;;;;11.15;5.65;;;;;;;18.77;46.61;103098.28;5019568;28;20041;-35
2023/05/18 06:49:13;;;;;;;14.15;5.88;;;;;;;18.77;46.11;103100.97;5019803;28;20694;-33
2023/05/18 06:51:41;;;;;;;16.15;6.18;;;;;;;18.78;46.76;103099.19;5020843;28;20072;-33
2023/05/18 06:54:08;;;;;;;10.23;5.68;;;;;;;18.78;46.40;103102.72;5020577;28;20053;-33
2023/05/18 06:56:35;;;;;;;13.00;6.60;;;;;;;18.77;46.66;103098.28;5019389;28;20045;-35
2023/05/18 06:59:01;;;;;;;12.63;6.72;;;;;;;18.76;46.70;103104.63;5023804;28;20051;-35
2023/05/18 07:01:28;;;;;;;16.50;6.65;;;;;;;18.76;46.95;103101.09;5017910;28;20488;-33
2023/05/18 07:03:55;;;;;;;14.88;6.70;;;;;;;18.76;46.45;103103.78;5024074;28;20058;-33
2023/05/18 07:06:21;;;;;;;14.02;7.13;;;;;;;18.76;46.58;103106.47;5021083;28;20111;-33
2023/05/18 07:08:48;;;;;;;16.25;7.50;;;;;;;18.74;46.86;103102.06;5023534;28;20091;-35
2023/05/18 07:11:15;;;;;;;14.20;8.00;;;;;;;18.76;46.49;103107.31;5026589;28;20057;-33
2023/05/18 07:13:41;;;;;;;19.60;8.70;;;;;;;18.80;46.71;103105.28;5028165;28;20045;-32
2023/05/18 07:16:08;;;;;;;17.52;8.85;;;;;;;18.88;47.07;103113.69;5024743;28;20123;-34
2023/05/18 07:18:35;;;;;;;16.48;9.27;;;;;;;18.98;46.50;103112.13;5023134;28;20612;-35
2023/05/18 07:21:02;;;;;;;17.30;9.50;;;;;;;19.08;46.23;103113.19;5025438;28;20075;-33
2023/05/18 07:23:28;;;;;;;28.67;10.10;;;;;;;19.19;46.58;103113.31;5025575;28;20092;-32
2023/05/18 07:25:56;;;;;;;17.20;9.52;;;;;;;19.30;45.64;103114.44;5028008;28;20053;-33
2023/05/18 07:28:23;;;;;;;18.27;9.32;;;;;;;19.39;45.59;103117.31;5021007;28;20049;-33
2023/05/18 07:30:49;;;;;;;17.60;9.65;;;;;;;19.48;45.83;103113.97;5023531;28;20041;-33
2023/05/18 07:33:16;;;;;;;15.75;9.52;;;;;;;19.57;45.13;103112.47;5019214;28;20108;-33
2023/05/18 07:35:43;;;;;;;18.98;9.20;;;;;;;19.65;45.55;103107.44;5026007;28;20076;-33
2023/05/18 07:38:10;;;;;;;17.27;9.25;;;;;;;19.73;45.50;103115.81;5027757;28;20087;-33
2023/05/18 07:40:37;;;;;;;15.13;8.60;;;;;;;19.80;44.63;103110.00;5028988;28;20441;-33
2023/05/18 07:43:03;;;;;;;16.50;8.27;;;;;;;19.83;44.96;103113.34;5024925;28;20060;-33
2023/05/18 07:45:30;;;;;;;16.17;9.02;;;;;;;19.86;45.06;103114.94;5023947;28;20103;-33
2023/05/18 07:47:57;;;;;;;18.08;9.88;;;;;;;19.87;44.60;103119.38;5026211;28;20073;-33
2023/05/18 07:50:25;;;;;;;18.27;8.80;;;;;;;19.87;44.23;103116.69;5026489;28;20073;-32
2023/05/18 07:52:52;;;;;;;15.45;8.18;;;;;;;19.87;44.99;103119.38;5026146;28;20057;-33
2023/05/18 07:55:18;;;;;;;23.67;8.75;;;;;;;19.87;45.11;103117.53;5026833;28;20045;-33
2023/05/18 07:57:45;;;;;;;20.40;8.88;;;;;;;19.86;44.67;103120.31;5023048;28;20111;-33
2023/05/18 08:00:12;;;;;;;17.92;8.80;;;;;;;19.85;44.82;103126.69;5020545;28;20049;-33
2023/05/18 08:02:39;;;;;;;16.73;8.60;;;;;;;19.84;44.77;103133.03;5017990;28;20433;-33
2023/05/18 08:05:07;;;;;;;16.65;8.13;;;;;;;19.83;44.34;103125.94;5025551;28;20392;-33
2023/05/18 08:07:33;;;;;;;18.25;8.48;;;;;;;19.83;44.83;103134.00;5022327;28;20099;-33
2023/05/18 08:10:00;;;;;;;17.73;8.85;;;;;;;19.81;44.41;103130.56;5024026;28;20077;-33
2023/05/18 08:12:28;;;;;;;19.40;8.27;;;;;;;19.81;44.69;103127.88;5026060;28;20060;-33
2023/05/18 08:14:55;;;;;;;20.08;9.40;;;;;;;19.80;44.52;103127.00;5022978;28;20088;-33
2023/05/18 08:17:22;;;;;;;14.93;7.28;;;;;;;19.79;44.84;103125.28;5025002;28;20056;-33
2023/05/18 08:19:49;;;;;;;17.65;8.18;;;;;;;19.79;44.34;103125.28;5020789;28;20053;-34
2023/05/18 08:22:15;;;;;;;16.38;7.93;;;;;;;19.78;44.26;103126.28;5022436;28;20045;-34
2023/05/18 08:24:43;;;;;;;16.17;8.02;;;;;;;19.79;44.66;103119.06;5025258;28;20089;-33
2023/05/18 08:27:10;;;;;;;13.95;7.30;;;;;;;19.78;44.71;103122.69;5022807;28;20115;-34
2023/05/18 08:29:37;;;;;;;19.38;8.27;;;;;;;19.77;43.95;103120.97;5022890;28;20136;-33
2023/05/18 08:32:06;;;;;;;16.20;7.45;;;;;;;19.76;44.60;103124.66;5021207;28;20042;-34
2023/05/18 08:34:33;;;;;;;17.27;8.23;;;;;;;19.76;44.05;103119.28;5021937;28;20168;-33
2023/05/18 08:37:00;;;;;;;19.38;8.27;;;;;;;19.76;43.91;103113.88;5023811;28;20072;-34
2023/05/18 08:39:30;;;;;;;18.25;7.97;;;;;;;19.76;43.89;103117.44;5028063;28;20118;-34
2023/05/18 08:42:05;;;;;;;17.20;7.55;;;;;;;19.75;44.14;103121.09;5024128;28;20350;-34
2023/05/18 08:45:01;;;;;;;17.48;8.02;;;;;;;19.73;44.14;103121.19;5019725;28;20061;-34
2023/05/18 08:47:29;;;;;;;14.65;7.22;;;;;;;19.75;43.66;103120.25;5020784;28;20441;-33
2023/05/18 08:49:56;;;;;;;14.98;7.10;;;;;;;19.76;43.97;103116.56;5024647;28;20088;-34
2023/05/18 08:52:27;;;;;;;15.38;6.88;;;;;;;19.75;43.62;103115.72;5021337;28;20054;-33
2023/05/18 08:54:56;;;;;;;15.10;7.88;;;;;;;19.75;44.09;103114.88;5024520;28;20445;-33
2023/05/18 08:57:23;;;;;;;19.52;9.13;;;;;;;19.75;43.45;103112.19;5027618;28;21236;-34
2023/05/18 08:59:51;;;;;;;17.90;7.85;;;;;;;19.75;43.80;103112.19;5020829;28;20053;-32
2023/05/18 09:02:18;;;;;;;17.75;7.25;;;;;;;19.75;43.41;103113.03;5020287;28;21120;-33
2023/05/18 09:04:45;;;;;;;15.48;6.63;;;;;;;19.73;42.46;103109.56;5020203;28;20115;-32
2023/05/18 09:07:12;;;;;;;14.63;6.63;;;;;;;19.73;41.91;103107.75;5023160;28;20053;-32
2023/05/18 09:09:40;;;;;;;14.32;6.30;;;;;;;19.73;41.78;103105.03;5023448;28;20384;-32
2023/05/18 09:12:07;;;;;;;13.23;6.45;;;;;;;19.74;41.24;103105.94;5022095;28;20062;-31
2023/05/18 09:14:33;;;;;;;13.98;5.30;;;;;;;19.75;41.27;103104.09;5020233;28;21316;-33
2023/05/18 09:17:00;;;;;;;16.55;6.13;;;;;;;19.74;41.19;103100.56;5019850;28;20049;-34
2023/05/18 09:19:27;;;;;;;12.90;5.78;;;;;;;19.75;41.58;103093.34;5022897;28;20049;-34
2023/05/18 09:21:54;;;;;;;12.40;5.65;;;;;;;19.75;41.25;103094.19;5023442;28;20053;-33
2023/05/18 09:24:21;;;;;;;12.82;4.82;;;;;;;19.75;40.76;103091.50;5022777;28;20072;-32
2023/05/18 09:26:50;;;;;;;12.50;4.80;;;;;;;19.76;41.49;103084.28;5022082;28;20156;-33
2023/05/18 09:29:19;;;;;;;12.45;4.35;;;;;;;19.77;41.12;103083.31;5024655;28;20088;-33
2023/05/18 09:31:46;;;;;;;15.48;4.47;;;;;;;19.78;41.24;103079.63;5024536;28;20285;-33
2023/05/18 09:34:14;;;;;;;14.45;4.10;;;;;;;19.78;41.31;103075.16;5025662;28;20326;-33
2023/05/18 09:36:45;;;;;;;8.57;3.95;;;;;;;19.81;40.91;103076.72;5026736;28;20096;-32
2023/05/18 09:39:12;;;;;;;11.60;4.50;;;;;;;19.80;41.09;103067.81;5025963;28;20049;-32
2023/05/18 09:41:39;;;;;;;8.68;4.18;;;;;;;19.82;41.82;103075.75;5020114;28;20038;-33
2023/05/18 09:44:11;;;;;;;7.90;3.40;;;;;;;19.83;41.30;103072.97;5023398;28;20115;-33
2023/05/18 09:46:38;;;;;;;8.55;4.00;;;;;;;19.85;41.14;103067.47;5020884;28;20045;-32
2023/05/18 09:49:06;;;;;;;9.85;4.18;;;;;;;19.87;41.36;103079.00;5015775;28;20071;-34
2023/05/18 09:51:38;;;;;;;7.68;3.85;;;;;;;19.87;41.84;103074.47;5019975;28;20049;-32
2023/05/18 09:54:08;;;;;;;8.88;4.18;;;;;;;19.89;41.62;103080.59;5024599;28;20045;-32
2023/05/18 09:56:36;;;;;;;7.60;3.95;;;;;;;19.90;42.02;103070.69;4987912;28;20348;-35
2023/05/18 09:59:15;;;;;;;11.60;3.88;;;;;;;19.92;41.50;103082.22;4948118;28;20220;-33
2023/05/18 10:02:04;;;;;;;8.13;3.55;;;;;;;19.95;42.39;103074.78;4977332;28;20084;-33
2023/05/18 10:04:38;;;;;;;8.00;3.33;;;;;;;19.97;42.12;103070.13;5022846;28;20053;-33
2023/05/18 10:07:16;;;;;;;11.88;4.28;;;;;;;19.99;42.29;103066.47;5020851;28;20053;-32
2023/05/18 10:09:45;;;;;;;9.02;3.63;;;;;;;20.02;42.33;103066.22;5020834;28;20057;-32
2023/05/18 10:12:12;;;;;;;6.22;3.20;;;;;;;20.03;42.35;103068.81;5018135;28;20052;-32
2023/05/18 10:14:42;;;;;;;8.50;3.40;;;;;;;20.05;42.09;103066.88;5020785;28;20077;-33
2023/05/18 10:17:11;;;;;;;7.63;3.67;;;;;;;20.07;42.64;103067.63;5024821;28;20099;-34
2023/05/18 10:19:43;;;;;;;5.88;3.38;;;;;;;20.09;41.76;103067.50;5030281;28;20050;-32
2023/05/18 10:22:10;;;;;;;9.82;3.75;;;;;;;20.11;42.42;103058.34;5026217;28;20057;-33
2023/05/18 10:24:40;;;;;;;7.60;3.13;;;;;;;20.12;42.23;103065.44;5026307;28;20072;-33
2023/05/18 10:27:08;;;;;;;8.02;3.72;;;;;;;20.14;42.02;103060.81;5024737;28;20053;-32
2023/05/18 10:29:36;;;;;;;8.70;3.30;;;;;;;20.16;42.52;103053.47;5024058;28;20445;-33
2023/05/18 10:32:03;;;;;;;6.13;2.78;;;;;;;20.17;42.39;103047.13;5027385;28;20092;-33
2023/05/18 10:34:33;;;;;;;6.93;3.08;;;;;;;20.20;42.00;103052.28;5026521;28;20061;-33
2023/05/18 10:37:04;;;;;;;7.07;3.78;;;;;;;20.20;42.36;103054.97;5026493;28;20085;-33
2023/05/18 10:39:34;;;;;;;6.32;2.72;;;;;;;20.21;42.08;103054.00;5027892;28;20099;-33
2023/05/18 10:42:03;;;;;;;6.65;3.13;;;;;;;20.24;42.61;103050.22;5027631;28;20045;-33
2023/05/18 10:44:31;;;;;;;5.80;2.97;;;;;;;20.26;42.73;103052.78;5027935;28;20061;-33
2023/05/18 10:46:57;;;;;;;5.30;2.67;;;;;;;20.27;41.91;103043.75;5027144;28;20315;-32
2023/05/18 10:49:25;;;;;;;5.20;3.03;;;;;;;20.29;42.14;103047.19;5031166;28;20176;-33
2023/05/18 10:51:55;;;;;;;7.32;2.92;;;;;;;20.30;42.37;103039.00;5028491;28;20109;-33
2023/05/18 10:54:22;;;;;;;7.50;3.03;;;;;;;20.32;42.77;103037.03;5028414;28;20107;-33
2023/05/18 10:56:51;;;;;;;6.20;3.17;;;;;;;20.35;42.27;103041.34;5029409;28;20057;-34
2023/05/18 10:59:19;;;;;;;7.13;2.40;;;;;;;20.37;42.31;103044.78;5023566;28;20050;-33
2023/05/18 11:01:48;;;;;;;6.07;2.40;;;;;;;20.39;42.58;103043.69;5029431;28;20046;-33
2023/05/18 11:04:15;;;;;;;6.72;2.58;;;;;;;20.42;41.97;103037.19;5023745;28;20072;-33
2023/05/18 11:06:41;;;;;;;5.70;2.65;;;;;;;20.44;42.65;103041.50;5022023;28;20049;-33
2023/05/18 11:09:21;;;;;;;9.35;2.78;;;;;;;20.46;42.09;103027.91;5026644;28;20080;-33
2023/05/18 11:11:58;;;;;;;7.45;3.03;;;;;;;20.51;42.31;103024.91;5027362;28;20049;-33
2023/05/18 11:14:29;;;;;;;6.70;2.90;;;;;;;20.53;42.61;103026.50;5025961;28;20455;-33
2023/05/18 11:17:18;;;;;;;5.60;2.40;;;;;;;20.57;42.65;103030.69;5025568;28;20121;-33
2023/05/18 11:20:10;;;;;;;6.18;2.70;;;;;;;20.59;42.03;103026.03;5030274;28;20045;-33
2023/05/18 11:22:46;;;;;;;5.35;2.55;;;;;;;20.63;42.00;103023.97;5027367;28;20045;-33
2023/05/18 11:25:30;;;;;;;4.82;2.33;;;;;;;20.64;41.96;103018.47;5025181;28;20424;-33
2023/05/18 11:28:04;;;;;;;4.80;2.50;;;;;;;20.68;42.09;103014.56;5022113;28;20093;-33
2023/05/18 11:30:34;;;;;;;4.95;2.28;;;;;;;20.72;42.69;103017.00;5022657;28;20131;-34